TimeEST,TemperatureF,Dew PointF,Humidity,Sea Level PressureIn,VisibilityMPH,Wind Direction,Wind SpeedMPH,Gust SpeedMPH,PrecipitationIn,Events,Conditions,WindDirDegrees,DateUTC
12:58 AM,25.2,12.6,59,30.18,10.0,NNE,5.8,-,N/A,,Overcast,20,2013-12-31 05:58:00
1:58 AM,25.0,12.6,59,30.18,10.0,NNE,5.8,-,N/A,,Overcast,30,2013-12-31 06:58:00
2:58 AM,23.0,12.7,65,30.18,10.0,North,4.6,-,N/A,,Overcast,360,2013-12-31 07:58:00
3:58 AM,23.4,10.9,59,30.17,10.0,NNE,5.8,-,N/A,,Overcast,20,2013-12-31 08:58:00
4:58 AM,22.8,10.9,60,30.16,10.0,ENE,4.6,-,N/A,,Overcast,60,2013-12-31 09:58:00
5:58 AM,22.3,11.8,64,30.16,10.0,ENE,3.5,-,N/A,,Overcast,60,2013-12-31 10:58:00
6:58 AM,21.7,10.6,62,30.16,10.0,ESE,2.3,-,N/A,,Clear,120,2013-12-31 11:58:00
7:58 AM,22.1,13.8,70,30.17,10.0,Calm,Calm,-,N/A,,Overcast,0,2013-12-31 12:58:00
8:58 AM,24.1,12.7,62,30.16,10.0,SE,2.3,-,N/A,,Clear,130,2013-12-31 13:58:00
9:58 AM,28.9,14.0,54,30.15,10.0,South,9.2,-,N/A,,Partly Cloudy,180,2013-12-31 14:58:00
10:58 AM,29.8,13.6,51,30.14,10.0,SW,9.2,-,N/A,,Overcast,230,2013-12-31 15:58:00
11:58 AM,31.5,14.7,50,30.12,10.0,SSW,10.4,-,N/A,,Overcast,210,2013-12-31 16:58:00
12:58 PM,35.4,17.4,48,30.09,10.0,WSW,11.5,-,N/A,,Mostly Cloudy,240,2013-12-31 17:58:00
1:58 PM,37.0,19.4,49,30.08,10.0,WSW,11.5,-,N/A,,Overcast,240,2013-12-31 18:58:00
2:58 PM,37.6,20.8,51,30.09,10.0,WSW,17.3,26.5,N/A,,Scattered Clouds,250,2013-12-31 19:58:00
3:52 PM,37.4,24.8,60,30.10,10.0,WSW,13.8,20.7,N/A,,Mostly Cloudy,250,2013-12-31 20:52:00
3:58 PM,36.9,24.3,60,30.12,10.0,West,15.0,20.7,0.00,,Mostly Cloudy,260,2013-12-31 20:58:00
4:02 PM,37.4,24.8,60,30.10,10.0,West,15.0,20.7,N/A,,Overcast,260,2013-12-31 21:02:00
4:14 PM,37.4,24.8,60,30.11,10.0,West,10.4,19.6,N/A,,Overcast,270,2013-12-31 21:14:00
4:28 PM,35.6,24.8,65,30.11,10.0,WSW,10.4,18.4,N/A,,Mostly Cloudy,250,2013-12-31 21:28:00
4:52 PM,35.6,23.0,60,30.11,10.0,West,12.7,-,N/A,,Mostly Cloudy,260,2013-12-31 21:52:00
4:58 PM,35.2,23.4,62,30.14,10.0,West,12.7,-,0.00,,Mostly Cloudy,280,2013-12-31 21:58:00
5:02 PM,35.6,24.8,65,30.13,9.0,WNW,18.4,-,N/A,,Overcast,300,2013-12-31 22:02:00
5:12 PM,33.8,23.0,65,30.13,10.0,WNW,13.8,25.3,N/A,,Mostly Cloudy,290,2013-12-31 22:12:00
5:58 PM,32.7,19.4,58,30.18,10.0,West,12.7,-,0.00,,Clear,280,2013-12-31 22:58:00
6:58 PM,32.0,16.0,52,30.21,10.0,WNW,15.0,-,N/A,,Clear,300,2013-12-31 23:58:00
7:58 PM,29.8,13.3,50,30.24,10.0,West,10.4,-,N/A,,Clear,280,2014-01-01 00:58:00
8:58 PM,28.4,10.4,47,30.27,10.0,WNW,11.5,-,N/A,,Clear,290,2014-01-01 01:58:00
9:58 PM,27.3,9.5,47,30.28,10.0,West,9.2,-,N/A,,Clear,280,2014-01-01 02:58:00
10:58 PM,25.9,10.0,51,30.30,10.0,WNW,10.4,-,N/A,,Clear,300,2014-01-01 03:58:00
11:58 PM,25.9,9.7,50,30.32,10.0,WNW,9.2,-,N/A,,Clear,300,2014-01-01 04:58:00